Terminal Aerodrome Forecast
Issued by NWS

Home | Current Version | Previous Version | Text Only | Print | Product List | Glossary On
Versions: 1 2 3 4 5 6 7 8 9 10 11 12 13 14 15 16 17 18 19 20 21 22
000
FTUS43 KBIS 051730
TAFDIK
TAF
KDIK 051730Z 0518/0618 34015KT P6SM SCT020 BKN100
     FM052100 36014KT P6SM VCSH BKN070
     FM060200 34007KT P6SM BKN070
     FM061500 33010KT P6SM BKN100=

USA.gov is the U.S. government's official web portal to all federal, state and local government web resources and services.